Terminal Aerodrome Forecast
Issued by NWS Twin Cities, MN

Home | Current Version | Previous Version | Text Only | Print | Product List | Glossary On
Versions: 1 2 3 4 5 6 7 8 9 10 11 12 13 14 15 16 17 18 19 20 21
000
FTUS43 KMPX 261000 AAB
TAFEAU
TAF AMD
KEAU 261005Z 2610/2706 03004KT 6SM BR SCT020 OVC040
     FM261300 01004KT 6SM BR OVC013
     FM270400 36006KT 4SM -SN BR OVC009=

USA.gov is the U.S. government's official web portal to all federal, state and local government web resources and services.